Terminal Aerodrome Forecast
Issued by NWS Topeka, KS

Home | Current Version | Previous Version | Graphics & Text | Print | Product List | Glossary On
Versions: 1 2 3 4 5 6 7 8 9 10 11 12 13 14 15 16 17 18 19 20 21 22 23 24 25 26 27 28
000
FTUS43 KTOP 170900 AAC
TAFTOP
TAF AMD
KTOP 171000Z 1710/1806 15004KT 6SM BR BKN012
     FM171030 15004KT 3SM BR BKN009
     FM171500 16005KT 6SM BR BKN014
     FM171800 16005KT P6SM SCT015 BKN250=

USA.gov is the U.S. government's official web portal to all federal, state and local government web resources and services.